CZ-0138 weather

Loučeň Airstrip
Loučeň, Central Bohemian Region, Czechia

Public forecast

Using degrees Celsius for public forecast. Weather courtesy of forecast.io.

METAR (pilot weather report)

Closest report is Kbely Air Base, 22.0 nm (40.8 km) WSW. Retrieved 2019/03/22 08:00 UTC (2 minutes ago):

LKKB 220800Z 22003KT 180V260 CAVOK 08/02 Q1033 NOSIG

TAF (pilot weather forecast)

Closest forecast is Kbely Air Base, 22.0 nm (40.8 km) WSW. Retrieved 2019/03/22 06:00 UTC (2 hours ago):

TAF LKKB 220500Z 2206/2306 VRB02KT CAVOK BECMG 2302/2304 5000 BR